Time,TemperatureF,DewpointF,PressureIn,WindDirection,WindDirectionDegrees,WindSpeedMPH,WindSpeedGustMPH,Humidity,HourlyPrecipIn,Conditions,Clouds,dailyrainin,SoftwareType,DateUTC
2013-12-19 00:02:00,15.3,5.9,29.47,SSW,202,0.0,0.0,66,0.00,,---,0.00,VWS V14.01,2013-12-19 05:02:00,
2013-12-19 00:03:00,15.3,5.9,29.47,SSW,202,0.0,0.0,66,0.00,,---,0.00,VWS V14.01,2013-12-19 05:03:00,
2013-12-19 00:06:00,15.3,5.9,29.47,SSW,202,0.0,0.0,66,0.00,,---,0.00,VWS V14.01,2013-12-19 05:06:00,
2013-12-19 00:07:00,15.3,5.9,29.47,SSW,202,0.0,0.0,66,0.00,,---,0.00,VWS V14.01,2013-12-19 05:07:00,
2013-12-19 00:09:00,15.3,5.9,29.50,SSW,202,0.0,0.0,66,0.00,,---,0.00,VWS V14.01,2013-12-19 05:09:00,
2013-12-19 00:10:00,15.1,5.8,29.50,SSW,202,0.0,0.0,66,0.00,,---,0.00,VWS V14.01,2013-12-19 05:10:00,
2013-12-19 00:15:00,15.4,6.5,29.50,SSW,202,0.0,0.0,67,0.00,,---,0.00,VWS V14.01,2013-12-19 05:15:00,
2013-12-19 00:20:00,15.3,5.9,29.50,WSW,248,0.0,0.0,66,0.00,,---,0.00,VWS V14.01,2013-12-19 05:20:00,
2013-12-19 00:25:00,14.9,5.6,29.50,SSE,158,0.0,0.0,66,0.00,,---,0.00,VWS V14.01,2013-12-19 05:25:00,
2013-12-19 00:30:00,14.7,5.4,29.50,West,270,0.0,4.0,66,0.00,,---,0.00,VWS V14.01,2013-12-19 05:30:00,
2013-12-19 00:35:00,14.5,5.3,29.50,West,270,0.0,0.0,66,0.00,,---,0.00,VWS V14.01,2013-12-19 05:35:00,
2013-12-19 00:40:00,14.9,5.9,29.50,SSW,202,0.0,0.0,67,0.00,,---,0.00,VWS V14.01,2013-12-19 05:40:00,
2013-12-19 00:45:00,14.5,5.3,29.50,SSW,202,0.0,0.0,66,0.00,,---,0.00,VWS V14.01,2013-12-19 05:45:00,
2013-12-19 00:51:00,14.5,5.6,29.50,East,90,0.0,0.0,67,0.00,,---,0.00,VWS V14.01,2013-12-19 05:51:00,
2013-12-19 00:56:00,14.4,5.4,29.50,WNW,292,0.0,0.0,67,0.00,,---,0.00,VWS V14.01,2013-12-19 05:56:00,
2013-12-19 01:01:00,14.5,5.9,29.50,SSW,202,0.0,0.0,68,0.00,,---,0.00,VWS V14.01,2013-12-19 06:01:00,
2013-12-19 01:06:00,14.9,6.3,29.50,South,180,0.0,0.0,68,0.00,,---,0.00,VWS V14.01,2013-12-19 06:06:00,
2013-12-19 01:12:00,14.5,5.6,29.50,SSW,202,0.0,0.0,67,0.00,,---,0.00,VWS V14.01,2013-12-19 06:12:00,
2013-12-19 01:17:00,14.2,5.2,29.50,WSW,248,0.0,0.0,67,0.00,,---,0.00,VWS V14.01,2013-12-19 06:17:00,
2013-12-19 01:22:00,14.0,5.1,29.50,WSW,248,0.0,0.0,67,0.00,,---,0.00,VWS V14.01,2013-12-19 06:22:00,
2013-12-19 01:27:00,14.4,5.8,29.50,SW,225,0.0,0.0,68,0.00,,---,0.00,VWS V14.01,2013-12-19 06:27:00,
2013-12-19 01:32:00,13.8,5.2,29.50,SSW,202,0.0,0.0,68,0.00,,---,0.00,VWS V14.01,2013-12-19 06:32:00,
2013-12-19 01:37:00,13.3,4.7,29.50,SW,225,0.0,0.0,68,0.00,,---,0.00,VWS V14.01,2013-12-19 06:37:00,
2013-12-19 01:42:00,13.3,4.7,29.47,SW,225,0.0,0.0,68,0.00,,---,0.00,VWS V14.01,2013-12-19 06:42:00,
2013-12-19 01:47:00,13.5,4.9,29.47,South,180,0.0,0.0,68,0.00,,---,0.00,VWS V14.01,2013-12-19 06:47:00,
2013-12-19 01:52:00,13.3,4.7,29.47,SW,225,0.0,0.0,68,0.00,,---,0.00,VWS V14.01,2013-12-19 06:52:00,
2013-12-19 01:57:00,13.1,4.5,29.50,SW,225,0.0,0.0,68,0.00,,---,0.00,VWS V14.01,2013-12-19 06:57:00,
2013-12-19 02:02:00,12.9,4.4,29.50,SSW,202,0.0,0.0,68,0.00,,---,0.00,VWS V14.01,2013-12-19 07:02:00,
2013-12-19 02:07:00,12.9,4.4,29.50,SSW,202,0.0,0.0,68,0.00,,---,0.00,VWS V14.01,2013-12-19 07:07:00,
2013-12-19 02:12:00,13.1,4.5,29.50,SSW,202,0.0,0.0,68,0.00,,---,0.00,VWS V14.01,2013-12-19 07:12:00,
2013-12-19 02:17:00,12.9,4.4,29.50,SSW,202,0.0,0.0,68,0.00,,---,0.00,VWS V14.01,2013-12-19 07:17:00,
2013-12-19 02:22:00,12.7,4.2,29.50,SSW,202,0.0,0.0,68,0.00,,---,0.00,VWS V14.01,2013-12-19 07:22:00,
2013-12-19 02:27:00,12.6,4.0,29.50,SSW,202,0.0,0.0,68,0.00,,---,0.00,VWS V14.01,2013-12-19 07:27:00,
2013-12-19 02:32:00,12.6,4.0,29.50,SSW,202,0.0,0.0,68,0.00,,---,0.00,VWS V14.01,2013-12-19 07:32:00,
2013-12-19 02:38:00,12.6,4.0,29.50,SSW,202,0.0,0.0,68,0.00,,---,0.00,VWS V14.01,2013-12-19 07:38:00,
2013-12-19 02:43:00,12.6,4.0,29.50,SW,225,0.0,0.0,68,0.00,,---,0.00,VWS V14.01,2013-12-19 07:43:00,
2013-12-19 02:48:00,12.6,4.0,29.50,SW,225,0.0,0.0,68,0.00,,---,0.00,VWS V14.01,2013-12-19 07:48:00,
2013-12-19 02:53:00,12.6,4.0,29.50,SW,225,0.0,0.0,68,0.00,,---,0.00,VWS V14.01,2013-12-19 07:53:00,
2013-12-19 02:59:00,12.7,4.2,29.50,SW,225,0.0,0.0,68,0.00,,---,0.00,VWS V14.01,2013-12-19 07:59:00,
2013-12-19 03:04:00,12.6,4.0,29.50,SW,225,0.0,0.0,68,0.00,,---,0.00,VWS V14.01,2013-12-19 08:04:00,
2013-12-19 03:09:00,12.7,4.2,29.50,SSW,202,0.0,0.0,68,0.00,,---,0.00,VWS V14.01,2013-12-19 08:09:00,
2013-12-19 03:14:00,12.7,4.2,29.50,SSW,202,0.0,0.0,68,0.00,,---,0.00,VWS V14.01,2013-12-19 08:14:00,
2013-12-19 03:19:00,12.7,4.2,29.50,SW,225,0.0,0.0,68,0.00,,---,0.00,VWS V14.01,2013-12-19 08:19:00,
2013-12-19 03:24:00,12.6,4.0,29.50,SW,225,0.0,0.0,68,0.00,,---,0.00,VWS V14.01,2013-12-19 08:24:00,
2013-12-19 03:29:00,12.9,4.4,29.50,West,270,0.0,0.0,68,0.00,,---,0.00,VWS V14.01,2013-12-19 08:29:00,
2013-12-19 03:34:00,12.9,4.4,29.50,SW,225,0.0,0.0,68,0.00,,---,0.00,VWS V14.01,2013-12-19 08:34:00,
2013-12-19 03:40:00,13.3,4.7,29.50,NE,45,0.0,0.0,68,0.00,,---,0.00,VWS V14.01,2013-12-19 08:40:00,
2013-12-19 03:45:00,13.8,5.2,29.50,SW,225,0.0,0.0,68,0.00,,---,0.00,VWS V14.01,2013-12-19 08:45:00,
2013-12-19 03:50:00,13.8,5.2,29.50,ENE,68,0.0,0.0,68,0.00,,---,0.00,VWS V14.01,2013-12-19 08:50:00,
2013-12-19 03:55:00,14.2,6.5,29.50,SW,225,0.0,0.0,71,0.00,,---,0.00,VWS V14.01,2013-12-19 08:55:00,
2013-12-19 04:00:00,14.2,6.5,29.50,SW,225,0.0,0.0,71,0.00,,---,0.00,VWS V14.01,2013-12-19 09:00:00,
2013-12-19 04:05:00,14.4,6.7,29.50,SW,225,0.0,0.0,71,0.00,,---,0.00,VWS V14.01,2013-12-19 09:05:00,
2013-12-19 04:10:00,14.5,6.9,29.53,SW,225,0.0,0.0,71,0.00,,---,0.00,VWS V14.01,2013-12-19 09:10:00,
2013-12-19 04:15:00,14.5,7.2,29.53,SW,225,0.0,0.0,72,0.00,,---,0.00,VWS V14.01,2013-12-19 09:15:00,
2013-12-19 04:20:00,14.7,7.3,29.53,SW,225,0.0,0.0,72,0.00,,---,0.00,VWS V14.01,2013-12-19 09:20:00,
2013-12-19 04:25:00,14.7,7.0,29.50,SW,225,0.0,0.0,71,0.00,,---,0.00,VWS V14.01,2013-12-19 09:25:00,
2013-12-19 04:30:00,14.7,7.0,29.50,SW,225,0.0,0.0,71,0.00,,---,0.00,VWS V14.01,2013-12-19 09:30:00,
2013-12-19 04:36:00,14.9,7.2,29.50,SSW,202,0.0,0.0,71,0.00,,---,0.00,VWS V14.01,2013-12-19 09:36:00,
2013-12-19 04:41:00,14.9,7.2,29.50,SSW,202,0.0,0.0,71,0.00,,---,0.00,VWS V14.01,2013-12-19 09:41:00,
2013-12-19 04:46:00,14.7,7.0,29.50,East,90,0.0,0.0,71,0.00,,---,0.00,VWS V14.01,2013-12-19 09:46:00,
2013-12-19 04:51:00,14.5,6.9,29.50,SW,225,0.0,0.0,71,0.00,,---,0.00,VWS V14.01,2013-12-19 09:51:00,
2013-12-19 04:56:00,14.2,6.2,29.50,SSW,202,0.0,0.0,70,0.00,,---,0.00,VWS V14.01,2013-12-19 09:56:00,
2013-12-19 05:01:00,13.8,5.9,29.50,ENE,68,0.0,0.0,70,0.00,,---,0.00,VWS V14.01,2013-12-19 10:01:00,
2013-12-19 05:06:00,13.6,5.7,29.50,SW,225,0.0,0.0,70,0.00,,---,0.00,VWS V14.01,2013-12-19 10:06:00,
2013-12-19 05:11:00,13.5,5.5,29.50,SW,225,0.0,0.0,70,0.00,,---,0.00,VWS V14.01,2013-12-19 10:11:00,
2013-12-19 05:16:00,13.1,5.2,29.50,SW,225,0.0,0.0,70,0.00,,---,0.00,VWS V14.01,2013-12-19 10:16:00,
2013-12-19 05:21:00,12.9,5.0,29.50,SSW,202,0.0,0.0,70,0.00,,---,0.00,VWS V14.01,2013-12-19 10:21:00,
2013-12-19 05:26:00,12.4,4.5,29.50,West,270,0.0,0.0,70,0.00,,---,0.00,VWS V14.01,2013-12-19 10:26:00,
2013-12-19 05:31:00,12.0,4.1,29.50,SSW,202,0.0,0.0,70,0.00,,---,0.00,VWS V14.01,2013-12-19 10:31:00,
2013-12-19 05:36:00,12.0,4.1,29.50,SSW,202,0.0,0.0,70,0.00,,---,0.00,VWS V14.01,2013-12-19 10:36:00,
2013-12-19 05:41:00,12.2,4.3,29.50,SSW,202,0.0,0.0,70,0.00,,---,0.00,VWS V14.01,2013-12-19 10:41:00,
2013-12-19 05:46:00,12.2,4.3,29.50,SSW,202,0.0,0.0,70,0.00,,---,0.00,VWS V14.01,2013-12-19 10:46:00,
2013-12-19 05:51:00,11.8,4.0,29.50,SSW,202,0.0,0.0,70,0.00,,---,0.00,VWS V14.01,2013-12-19 10:51:00,
2013-12-19 05:56:00,11.7,3.8,29.50,SSW,202,0.0,0.0,70,0.00,,---,0.00,VWS V14.01,2013-12-19 10:56:00,
2013-12-19 06:01:00,11.5,3.6,29.50,SSW,202,0.0,0.0,70,0.00,,---,0.00,VWS V14.01,2013-12-19 11:01:00,
2013-12-19 06:06:00,11.3,3.4,29.50,SSW,202,0.0,0.0,70,0.00,,---,0.00,VWS V14.01,2013-12-19 11:06:00,
2013-12-19 06:11:00,10.9,3.1,29.53,SSW,202,0.0,0.0,70,0.00,,---,0.00,VWS V14.01,2013-12-19 11:11:00,
2013-12-19 06:16:00,10.4,2.6,29.53,SSW,202,0.0,0.0,70,0.00,,---,0.00,VWS V14.01,2013-12-19 11:16:00,
2013-12-19 06:21:00,10.2,2.4,29.53,SSW,202,0.0,0.0,70,0.00,,---,0.00,VWS V14.01,2013-12-19 11:21:00,
2013-12-19 06:26:00,10.2,2.4,29.53,SSW,202,0.0,0.0,70,0.00,,---,0.00,VWS V14.01,2013-12-19 11:26:00,
2013-12-19 06:31:00,10.0,2.2,29.53,SW,225,0.0,0.0,70,0.00,,---,0.00,VWS V14.01,2013-12-19 11:31:00,
2013-12-19 06:37:00,10.0,2.2,29.53,SW,225,0.0,0.0,70,0.00,,---,0.00,VWS V14.01,2013-12-19 11:37:00,
2013-12-19 06:42:00,9.5,1.7,29.53,SW,225,0.0,0.0,70,0.00,,---,0.00,VWS V14.01,2013-12-19 11:42:00,
2013-12-19 06:47:00,9.3,1.5,29.53,SW,225,0.0,0.0,70,0.00,,---,0.00,VWS V14.01,2013-12-19 11:47:00,
2013-12-19 06:52:00,9.3,1.5,29.53,SW,225,0.0,0.0,70,0.00,,---,0.00,VWS V14.01,2013-12-19 11:52:00,
2013-12-19 06:57:00,9.3,1.5,29.50,SW,225,0.0,0.0,70,0.00,,---,0.00,VWS V14.01,2013-12-19 11:57:00,
2013-12-19 07:02:00,9.1,1.4,29.50,SW,225,0.0,0.0,70,0.00,,---,0.00,VWS V14.01,2013-12-19 12:02:00,
2013-12-19 07:07:00,9.1,1.4,29.50,SW,225,0.0,0.0,70,0.00,,---,0.00,VWS V14.01,2013-12-19 12:07:00,
2013-12-19 07:12:00,9.0,1.2,29.53,SW,225,0.0,0.0,70,0.00,,---,0.00,VWS V14.01,2013-12-19 12:12:00,
2013-12-19 07:17:00,8.8,1.0,29.53,SW,225,0.0,0.0,70,0.00,,---,0.00,VWS V14.01,2013-12-19 12:17:00,
2013-12-19 07:22:00,8.8,1.0,29.53,SSW,202,0.0,0.0,70,0.00,,---,0.00,VWS V14.01,2013-12-19 12:22:00,
2013-12-19 07:28:00,9.1,1.4,29.53,SW,225,0.0,0.0,70,0.00,,---,0.00,VWS V14.01,2013-12-19 12:28:00,
2013-12-19 07:33:00,9.3,1.5,29.53,SW,225,0.0,0.0,70,0.00,,---,0.00,VWS V14.01,2013-12-19 12:33:00,
2013-12-19 07:38:00,9.5,1.7,29.53,SW,225,0.0,0.0,70,0.00,,---,0.00,VWS V14.01,2013-12-19 12:38:00,
2013-12-19 07:43:00,9.7,1.9,29.50,SW,225,0.0,0.0,70,0.00,,---,0.00,VWS V14.01,2013-12-19 12:43:00,
2013-12-19 07:48:00,10.0,2.2,29.50,SW,225,0.0,0.0,70,0.00,,---,0.00,VWS V14.01,2013-12-19 12:48:00,
2013-12-19 07:53:00,10.4,2.6,29.50,SW,225,0.0,0.0,70,0.00,,---,0.00,VWS V14.01,2013-12-19 12:53:00,
2013-12-19 07:58:00,10.8,2.9,29.53,SW,225,0.0,0.0,70,0.00,,---,0.00,VWS V14.01,2013-12-19 12:58:00,
2013-12-19 08:03:00,11.1,3.3,29.53,SW,225,0.0,0.0,70,0.00,,---,0.00,VWS V14.01,2013-12-19 13:03:00,
2013-12-19 08:08:00,11.7,3.8,29.53,SW,225,0.0,0.0,70,0.00,,---,0.00,VWS V14.01,2013-12-19 13:08:00,
2013-12-19 08:13:00,11.8,4.0,29.53,SW,225,0.0,0.0,70,0.00,,---,0.00,VWS V14.01,2013-12-19 13:13:00,
2013-12-19 08:18:00,12.2,4.3,29.53,SW,225,0.0,0.0,70,0.00,,---,0.00,VWS V14.01,2013-12-19 13:18:00,
2013-12-19 08:23:00,12.6,4.7,29.53,SW,225,0.0,0.0,70,0.00,,---,0.00,VWS V14.01,2013-12-19 13:23:00,
2013-12-19 08:28:00,12.7,4.8,29.53,ENE,68,0.0,0.0,70,0.00,,---,0.00,VWS V14.01,2013-12-19 13:28:00,
2013-12-19 08:33:00,13.1,5.2,29.53,ENE,68,0.0,0.0,70,0.00,,---,0.00,VWS V14.01,2013-12-19 13:33:00,
2013-12-19 08:38:00,13.6,5.7,29.53,ENE,68,0.0,0.0,70,0.00,,---,0.00,VWS V14.01,2013-12-19 13:38:00,
2013-12-19 08:43:00,14.0,7.2,29.53,ENE,68,0.0,0.0,74,0.00,,---,0.00,VWS V14.01,2013-12-19 13:43:00,
2013-12-19 08:48:00,14.4,7.6,29.53,ENE,68,0.0,0.0,74,0.00,,---,0.00,VWS V14.01,2013-12-19 13:48:00,
2013-12-19 08:53:00,14.9,8.1,29.53,ENE,68,0.0,0.0,74,0.00,,---,0.00,VWS V14.01,2013-12-19 13:53:00,
2013-12-19 08:59:00,15.4,8.6,29.53,ENE,68,0.0,0.0,74,0.00,,---,0.00,VWS V14.01,2013-12-19 13:59:00,
2013-12-19 09:04:00,15.8,9.0,29.53,WNW,292,0.0,0.0,74,0.00,,---,0.00,VWS V14.01,2013-12-19 14:04:00,
2013-12-19 09:10:00,16.2,9.4,29.53,WNW,292,0.0,0.0,74,0.00,,---,0.00,VWS V14.01,2013-12-19 14:10:00,
2013-12-19 09:15:00,16.7,9.9,29.53,WNW,292,0.0,0.0,74,0.00,,---,0.00,VWS V14.01,2013-12-19 14:15:00,
2013-12-19 09:21:00,17.1,10.2,29.53,WNW,292,0.0,0.0,74,0.00,,---,0.00,VWS V14.01,2013-12-19 14:21:00,
2013-12-19 09:26:00,17.6,10.4,29.53,WNW,292,0.0,0.0,73,0.00,,---,0.00,VWS V14.01,2013-12-19 14:26:00,
2013-12-19 09:31:00,18.1,11.0,29.53,WNW,292,0.0,0.0,73,0.00,,---,0.00,VWS V14.01,2013-12-19 14:31:00,
2013-12-19 09:36:00,18.5,11.3,29.53,WNW,292,0.0,0.0,73,0.00,,---,0.00,VWS V14.01,2013-12-19 14:36:00,
2013-12-19 09:42:00,19.2,12.0,29.53,WNW,292,0.0,0.0,73,0.00,,---,0.00,VWS V14.01,2013-12-19 14:42:00,
2013-12-19 09:47:00,19.6,12.4,29.53,WNW,292,0.0,0.0,73,0.00,,---,0.00,VWS V14.01,2013-12-19 14:47:00,
2013-12-19 09:52:00,20.1,12.9,29.53,WNW,292,0.0,0.0,73,0.00,,---,0.00,VWS V14.01,2013-12-19 14:52:00,
2013-12-19 09:57:00,20.7,13.4,29.50,WNW,292,0.0,0.0,73,0.00,,---,0.00,VWS V14.01,2013-12-19 14:57:00,
2013-12-19 10:02:00,21.0,13.7,29.50,WNW,292,0.0,0.0,73,0.00,,---,0.00,VWS V14.01,2013-12-19 15:02:00,
2013-12-19 10:08:00,21.4,13.8,29.50,WNW,292,0.0,0.0,72,0.00,,---,0.00,VWS V14.01,2013-12-19 15:08:00,
2013-12-19 10:13:00,21.9,14.3,29.53,WNW,292,0.0,0.0,72,0.00,,---,0.00,VWS V14.01,2013-12-19 15:13:00,
2013-12-19 10:18:00,22.3,14.6,29.53,WNW,292,0.0,0.0,72,0.00,,---,0.00,VWS V14.01,2013-12-19 15:18:00,
2013-12-19 10:23:00,22.1,13.8,29.53,WNW,292,0.0,0.0,70,0.00,,---,0.00,VWS V14.01,2013-12-19 15:23:00,
2013-12-19 10:28:00,22.1,13.5,29.50,WNW,292,0.0,0.0,69,0.00,,---,0.00,VWS V14.01,2013-12-19 15:28:00,
2013-12-19 10:33:00,22.3,13.7,29.50,WNW,292,0.0,0.0,69,0.00,,---,0.00,VWS V14.01,2013-12-19 15:33:00,
2013-12-19 10:38:00,22.3,13.7,29.50,WNW,292,0.0,0.0,69,0.00,,---,0.00,VWS V14.01,2013-12-19 15:38:00,
2013-12-19 10:43:00,22.6,14.0,29.50,WNW,292,0.0,0.0,69,0.00,,---,0.00,VWS V14.01,2013-12-19 15:43:00,
2013-12-19 10:48:00,23.0,14.4,29.50,WNW,292,0.0,0.0,69,0.00,,---,0.00,VWS V14.01,2013-12-19 15:48:00,
2013-12-19 10:53:00,23.5,14.9,29.50,WNW,292,0.0,0.0,69,0.00,,---,0.00,VWS V14.01,2013-12-19 15:53:00,
2013-12-19 10:58:00,24.1,15.1,29.50,WNW,292,0.0,0.0,68,0.00,,---,0.00,VWS V14.01,2013-12-19 15:58:00,
2013-12-19 11:04:00,24.8,15.8,29.50,WNW,292,0.0,0.0,68,0.00,,---,0.00,VWS V14.01,2013-12-19 16:04:00,
2013-12-19 11:09:00,25.2,15.8,29.50,WNW,292,0.0,0.0,67,0.00,,---,0.00,VWS V14.01,2013-12-19 16:09:00,
2013-12-19 11:14:00,25.7,16.3,29.50,WNW,292,0.0,0.0,67,0.00,,---,0.00,VWS V14.01,2013-12-19 16:14:00,
2013-12-19 11:19:00,26.2,16.8,29.50,WNW,292,0.0,0.0,67,0.00,,---,0.00,VWS V14.01,2013-12-19 16:19:00,
2013-12-19 11:24:00,27.0,17.1,29.47,WNW,292,0.0,0.0,66,0.00,,---,0.00,VWS V14.01,2013-12-19 16:24:00,
2013-12-19 11:29:00,27.5,17.3,29.47,WNW,292,0.0,0.0,65,0.00,,---,0.00,VWS V14.01,2013-12-19 16:29:00,
2013-12-19 11:34:00,27.9,17.6,29.47,WNW,292,0.0,0.0,65,0.00,,---,0.00,VWS V14.01,2013-12-19 16:34:00,
2013-12-19 11:39:00,28.2,17.6,29.47,WNW,292,0.0,0.0,64,0.00,,---,0.00,VWS V14.01,2013-12-19 16:39:00,
2013-12-19 11:44:00,28.8,17.8,29.47,WNW,292,0.0,0.0,63,0.00,,---,0.00,VWS V14.01,2013-12-19 16:44:00,
2013-12-19 11:49:00,29.3,18.3,29.47,WNW,292,0.0,0.0,63,0.00,,---,0.00,VWS V14.01,2013-12-19 16:49:00,
2013-12-19 11:54:00,29.5,18.1,29.47,WNW,292,0.0,0.0,62,0.00,,---,0.00,VWS V14.01,2013-12-19 16:54:00,
2013-12-19 11:59:00,29.8,18.0,29.47,WNW,292,0.0,0.0,61,0.00,,---,0.00,VWS V14.01,2013-12-19 16:59:00,
2013-12-19 12:04:00,30.0,18.2,29.47,WNW,292,0.0,0.0,61,0.00,,---,0.00,VWS V14.01,2013-12-19 17:04:00,
2013-12-19 12:09:00,30.2,18.0,29.47,WNW,292,0.0,0.0,60,0.00,,---,0.00,VWS V14.01,2013-12-19 17:09:00,
2013-12-19 12:14:00,30.4,17.8,29.47,WNW,292,0.0,0.0,59,0.00,,---,0.00,VWS V14.01,2013-12-19 17:14:00,
2013-12-19 12:19:00,30.4,17.8,29.47,WNW,292,0.0,0.0,59,0.00,,---,0.00,VWS V14.01,2013-12-19 17:19:00,
2013-12-19 12:24:00,30.2,17.6,29.47,WNW,292,0.0,0.0,59,0.00,,---,0.00,VWS V14.01,2013-12-19 17:24:00,
2013-12-19 12:29:00,30.2,17.2,29.47,WNW,292,0.0,0.0,58,0.00,,---,0.00,VWS V14.01,2013-12-19 17:29:00,
2013-12-19 12:34:00,30.0,17.0,29.47,WNW,292,0.0,0.0,58,0.00,,---,0.00,VWS V14.01,2013-12-19 17:34:00,
2013-12-19 12:39:00,30.0,17.0,29.44,WNW,292,0.0,0.0,58,0.00,,---,0.00,VWS V14.01,2013-12-19 17:39:00,
2013-12-19 12:44:00,29.8,16.9,29.44,NNW,338,0.0,0.0,58,0.00,,---,0.00,VWS V14.01,2013-12-19 17:44:00,
2013-12-19 12:49:00,29.8,16.9,29.44,NNW,338,0.0,0.0,58,0.00,,---,0.00,VWS V14.01,2013-12-19 17:49:00,
2013-12-19 12:54:00,29.7,16.7,29.47,NNW,338,0.0,0.0,58,0.00,,---,0.00,VWS V14.01,2013-12-19 17:54:00,
2013-12-19 12:59:00,29.5,16.5,29.47,NNW,338,0.0,0.0,58,0.00,,---,0.00,VWS V14.01,2013-12-19 17:59:00,
2013-12-19 13:04:00,29.3,16.4,29.47,NNW,338,0.0,0.0,58,0.00,,---,0.00,VWS V14.01,2013-12-19 18:04:00,
2013-12-19 13:09:00,29.1,16.6,29.47,NNW,338,0.0,0.0,59,0.00,,---,0.00,VWS V14.01,2013-12-19 18:09:00,
2013-12-19 13:14:00,29.1,16.6,29.47,NNW,338,0.0,0.0,59,0.00,,---,0.00,VWS V14.01,2013-12-19 18:14:00,
2013-12-19 13:19:00,29.1,16.6,29.47,NNW,338,0.0,0.0,59,0.00,,---,0.00,VWS V14.01,2013-12-19 18:19:00,
2013-12-19 13:24:00,29.1,16.6,29.44,NNW,338,0.0,0.0,59,0.00,,---,0.00,VWS V14.01,2013-12-19 18:24:00,
2013-12-19 13:29:00,28.9,16.8,29.44,NNW,338,0.0,0.0,60,0.00,,---,0.00,VWS V14.01,2013-12-19 18:29:00,
2013-12-19 13:34:00,29.1,16.6,29.44,NNW,338,0.0,0.0,59,0.00,,---,0.00,VWS V14.01,2013-12-19 18:34:00,
2013-12-19 13:39:00,29.1,16.6,29.44,NNW,338,0.0,0.0,59,0.00,,---,0.00,VWS V14.01,2013-12-19 18:39:00,
2013-12-19 13:44:00,29.1,16.6,29.44,NNW,338,0.0,0.0,59,0.00,,---,0.00,VWS V14.01,2013-12-19 18:44:00,
2013-12-19 13:49:00,29.1,17.0,29.44,NNW,338,0.0,0.0,60,0.00,,---,0.00,VWS V14.01,2013-12-19 18:49:00,
2013-12-19 13:54:00,29.3,17.1,29.44,NNW,338,0.0,0.0,60,0.00,,---,0.00,VWS V14.01,2013-12-19 18:54:00,
2013-12-19 13:59:00,29.3,17.5,29.44,NNW,338,0.0,0.0,61,0.00,,---,0.00,VWS V14.01,2013-12-19 18:59:00,
2013-12-19 14:04:00,29.3,17.5,29.44,NNW,338,0.0,0.0,61,0.00,,---,0.00,VWS V14.01,2013-12-19 19:04:00,
2013-12-19 14:09:00,29.3,17.5,29.44,NNW,338,0.0,0.0,61,0.00,,---,0.00,VWS V14.01,2013-12-19 19:09:00,
2013-12-19 14:14:00,29.3,17.5,29.44,NNW,338,0.0,0.0,61,0.00,,---,0.00,VWS V14.01,2013-12-19 19:14:00,
2013-12-19 14:19:00,29.5,17.7,29.44,NNW,338,0.0,0.0,61,0.00,,---,0.00,VWS V14.01,2013-12-19 19:19:00,
2013-12-19 14:24:00,29.3,17.5,29.47,NNW,338,0.0,0.0,61,0.00,,---,0.00,VWS V14.01,2013-12-19 19:24:00,
2013-12-19 14:29:00,29.3,17.5,29.47,NNW,338,0.0,0.0,61,0.00,,---,0.00,VWS V14.01,2013-12-19 19:29:00,
2013-12-19 14:34:00,29.3,17.5,29.47,NNW,338,0.0,0.0,61,0.00,,---,0.00,VWS V14.01,2013-12-19 19:34:00,
2013-12-19 14:39:00,29.1,17.4,29.47,North,0,0.0,0.0,61,0.00,,---,0.00,VWS V14.01,2013-12-19 19:39:00,
2013-12-19 14:44:00,29.1,17.4,29.47,North,0,0.0,0.0,61,0.00,,---,0.00,VWS V14.01,2013-12-19 19:44:00,
2013-12-19 14:49:00,28.9,17.2,29.47,NNW,338,0.0,0.0,61,0.00,,---,0.00,VWS V14.01,2013-12-19 19:49:00,
2013-12-19 14:54:00,28.8,17.0,29.47,NW,315,0.0,0.0,61,0.00,,---,0.00,VWS V14.01,2013-12-19 19:54:00,
2013-12-19 14:59:00,28.6,16.9,29.47,NW,315,0.0,0.0,61,0.00,,---,0.00,VWS V14.01,2013-12-19 19:59:00,
2013-12-19 15:04:00,28.6,16.9,29.47,NW,315,0.0,0.0,61,0.00,,---,0.00,VWS V14.01,2013-12-19 20:04:00,
2013-12-19 15:09:00,28.6,16.5,29.47,WSW,248,0.0,0.0,60,0.00,,---,0.00,VWS V14.01,2013-12-19 20:09:00,
2013-12-19 15:14:00,28.6,16.9,29.47,WSW,248,0.0,0.0,61,0.00,,---,0.00,VWS V14.01,2013-12-19 20:14:00,
2013-12-19 15:19:00,28.6,16.5,29.47,WSW,248,0.0,0.0,60,0.00,,---,0.00,VWS V14.01,2013-12-19 20:19:00,
2013-12-19 15:24:00,28.6,16.9,29.47,WSW,248,0.0,0.0,61,0.00,,---,0.00,VWS V14.01,2013-12-19 20:24:00,
2013-12-19 15:29:00,28.4,16.7,29.47,WSW,248,0.0,0.0,61,0.00,,---,0.00,VWS V14.01,2013-12-19 20:29:00,
2013-12-19 15:34:00,28.0,16.7,29.47,SSE,158,0.0,0.0,62,0.00,,---,0.00,VWS V14.01,2013-12-19 20:34:00,
2013-12-19 15:39:00,27.9,16.5,29.47,SSE,158,0.0,0.0,62,0.00,,---,0.00,VWS V14.01,2013-12-19 20:39:00,
2013-12-19 15:45:00,27.5,16.6,29.47,SSW,202,0.0,0.0,63,0.00,,---,0.00,VWS V14.01,2013-12-19 20:45:00,
2013-12-19 15:50:00,27.3,16.4,29.47,SSW,202,0.0,0.0,63,0.00,,---,0.00,VWS V14.01,2013-12-19 20:50:00,
2013-12-19 15:55:00,27.0,16.1,29.50,SSW,202,0.0,0.0,63,0.00,,---,0.00,VWS V14.01,2013-12-19 20:55:00,
2013-12-19 16:00:00,26.8,15.9,29.50,SSE,158,0.0,0.0,63,0.00,,---,0.00,VWS V14.01,2013-12-19 21:00:00,
2013-12-19 16:05:00,26.4,15.9,29.50,West,270,0.0,0.0,64,0.00,,---,0.00,VWS V14.01,2013-12-19 21:05:00,
2013-12-19 16:10:00,26.1,15.6,29.50,SE,135,0.0,0.0,64,0.00,,---,0.00,VWS V14.01,2013-12-19 21:10:00,
2013-12-19 16:15:00,25.7,15.2,29.50,SW,225,0.0,0.0,64,0.00,,---,0.00,VWS V14.01,2013-12-19 21:15:00,
2013-12-19 16:20:00,25.3,15.2,29.50,SW,225,0.0,0.0,65,0.00,,---,0.00,VWS V14.01,2013-12-19 21:20:00,
2013-12-19 16:25:00,24.8,14.7,29.50,SSW,202,0.0,0.0,65,0.00,,---,0.00,VWS V14.01,2013-12-19 21:25:00,
2013-12-19 16:31:00,24.3,14.2,29.50,WSW,248,0.0,0.0,65,0.00,,---,0.00,VWS V14.01,2013-12-19 21:31:00,
2013-12-19 16:37:00,23.9,14.2,29.50,SSW,202,0.0,0.0,66,0.00,,---,0.00,VWS V14.01,2013-12-19 21:37:00,
2013-12-19 16:42:00,23.5,14.2,29.50,SSW,202,0.0,0.0,67,0.00,,---,0.00,VWS V14.01,2013-12-19 21:42:00,
2013-12-19 16:47:00,23.4,14.0,29.50,SSW,202,0.0,0.0,67,0.00,,---,0.00,VWS V14.01,2013-12-19 21:47:00,
2013-12-19 16:52:00,23.0,14.0,29.50,SSW,202,0.0,0.0,68,0.00,,---,0.00,VWS V14.01,2013-12-19 21:52:00,
2013-12-19 16:57:00,22.6,13.7,29.50,WSW,248,0.0,0.0,68,0.00,,---,0.00,VWS V14.01,2013-12-19 21:57:00,
2013-12-19 17:02:00,22.6,14.0,29.50,WSW,248,0.0,0.0,69,0.00,,---,0.00,VWS V14.01,2013-12-19 22:02:00,
2013-12-19 17:07:00,22.5,13.8,29.50,SW,225,0.0,0.0,69,0.00,,---,0.00,VWS V14.01,2013-12-19 22:07:00,
2013-12-19 17:12:00,22.1,13.5,29.50,SW,225,0.0,0.0,69,0.00,,---,0.00,VWS V14.01,2013-12-19 22:12:00,
2013-12-19 17:18:00,21.9,13.3,29.50,SSE,158,0.0,0.0,69,0.00,,---,0.00,VWS V14.01,2013-12-19 22:18:00,
2013-12-19 17:23:00,21.6,13.0,29.50,SSW,202,0.0,0.0,69,0.00,,---,0.00,VWS V14.01,2013-12-19 22:23:00,
2013-12-19 17:29:00,21.6,13.3,29.50,WSW,248,0.0,0.0,70,0.00,,---,0.00,VWS V14.01,2013-12-19 22:29:00,
2013-12-19 17:34:00,21.4,13.4,29.50,SSW,202,0.0,0.0,71,0.00,,---,0.00,VWS V14.01,2013-12-19 22:34:00,
2013-12-19 17:39:00,21.2,13.0,29.50,SSW,202,0.0,0.0,70,0.00,,---,0.00,VWS V14.01,2013-12-19 22:39:00,
2013-12-19 17:44:00,20.8,12.6,29.50,SW,225,0.0,0.0,70,0.00,,---,0.00,VWS V14.01,2013-12-19 22:44:00,
2013-12-19 17:49:00,20.5,12.3,29.50,SW,225,0.0,0.0,70,0.00,,---,0.00,VWS V14.01,2013-12-19 22:49:00,
2013-12-19 17:55:00,20.5,12.6,29.50,SW,225,0.0,0.0,71,0.00,,---,0.00,VWS V14.01,2013-12-19 22:55:00,
2013-12-19 18:01:00,20.3,12.7,29.50,SW,225,0.0,0.0,72,0.00,,---,0.00,VWS V14.01,2013-12-19 23:01:00,
2013-12-19 18:06:00,20.1,12.6,29.50,ENE,68,0.0,0.0,72,0.00,,---,0.00,VWS V14.01,2013-12-19 23:06:00,
2013-12-19 18:12:00,20.1,12.6,29.50,ESE,112,0.0,0.0,72,0.00,,---,0.00,VWS V14.01,2013-12-19 23:12:00,
2013-12-19 18:17:00,20.3,12.7,29.50,West,270,0.0,0.0,72,0.00,,---,0.00,VWS V14.01,2013-12-19 23:17:00,
2013-12-19 18:22:00,20.1,12.9,29.50,SSE,158,0.0,0.0,73,0.00,,---,0.00,VWS V14.01,2013-12-19 23:22:00,
2013-12-19 18:31:00,19.9,12.4,29.50,West,270,0.0,0.0,72,0.00,,---,0.00,VWS V14.01,2013-12-19 23:31:00,
2013-12-19 18:36:00,19.9,12.7,29.50,West,270,0.0,0.0,73,0.00,,---,0.00,VWS V14.01,2013-12-19 23:36:00,
2013-12-19 18:43:00,19.8,12.5,29.50,SW,225,0.0,0.0,73,0.00,,---,0.00,VWS V14.01,2013-12-19 23:43:00,
2013-12-19 18:49:00,19.6,12.4,29.50,SW,225,0.0,0.0,73,0.00,,---,0.00,VWS V14.01,2013-12-19 23:49:00,
2013-12-19 18:54:00,19.8,12.5,29.50,SE,135,0.0,0.0,73,0.00,,---,0.00,VWS V14.01,2013-12-19 23:54:00,
2013-12-19 18:59:00,19.9,13.0,29.50,ENE,68,0.0,0.0,74,0.00,,---,0.00,VWS V14.01,2013-12-19 23:59:00,
2013-12-19 19:04:00,19.9,13.0,29.50,SSW,202,0.0,0.0,74,0.00,,---,0.00,VWS V14.01,2013-12-20 00:04:00,
2013-12-19 19:09:00,19.9,13.0,29.53,West,270,0.0,0.0,74,0.00,,---,0.00,VWS V14.01,2013-12-20 00:09:00,
2013-12-19 19:14:00,19.9,13.0,29.53,West,270,0.0,0.0,74,0.00,,---,0.00,VWS V14.01,2013-12-20 00:14:00,
2013-12-19 19:19:00,20.1,13.5,29.53,SW,225,0.0,0.0,75,0.00,,---,0.00,VWS V14.01,2013-12-20 00:19:00,
2013-12-19 19:24:00,20.3,13.7,29.53,WSW,248,0.0,0.0,75,0.00,,---,0.00,VWS V14.01,2013-12-20 00:24:00,
2013-12-19 19:29:00,20.5,13.8,29.53,WSW,248,0.0,0.0,75,0.00,,---,0.00,VWS V14.01,2013-12-20 00:29:00,
2013-12-19 19:34:00,20.3,13.7,29.53,WSW,248,0.0,0.0,75,0.00,,---,0.00,VWS V14.01,2013-12-20 00:34:00,
2013-12-19 19:39:00,20.5,13.8,29.53,SW,225,0.0,0.0,75,0.00,,---,0.00,VWS V14.01,2013-12-20 00:39:00,
2013-12-19 19:44:00,20.5,13.8,29.53,SW,225,0.0,0.0,75,0.00,,---,0.00,VWS V14.01,2013-12-20 00:44:00,
2013-12-19 19:49:00,20.7,14.0,29.53,ENE,68,0.0,0.0,75,0.00,,---,0.00,VWS V14.01,2013-12-20 00:49:00,
2013-12-19 19:54:00,20.7,14.0,29.53,ENE,68,0.0,0.0,75,0.00,,---,0.00,VWS V14.01,2013-12-20 00:54:00,
2013-12-19 19:59:00,20.5,13.8,29.53,ENE,68,0.0,0.0,75,0.00,,---,0.00,VWS V14.01,2013-12-20 00:59:00,
2013-12-19 20:04:00,20.3,13.7,29.53,ENE,68,0.0,0.0,75,0.00,,---,0.00,VWS V14.01,2013-12-20 01:04:00,
2013-12-19 20:10:00,20.3,13.7,29.53,ENE,68,0.0,0.0,75,0.00,,---,0.00,VWS V14.01,2013-12-20 01:10:00,
2013-12-19 20:16:00,19.9,13.0,29.53,SSW,202,0.0,0.0,74,0.00,,---,0.00,VWS V14.01,2013-12-20 01:16:00,
2013-12-19 20:21:00,19.8,12.8,29.53,East,90,0.0,0.0,74,0.00,,---,0.00,VWS V14.01,2013-12-20 01:21:00,
2013-12-19 20:26:00,19.6,13.0,29.53,East,90,0.0,0.0,75,0.00,,---,0.00,VWS V14.01,2013-12-20 01:26:00,
2013-12-19 20:31:00,19.4,12.8,29.53,SW,225,0.0,0.0,75,0.00,,---,0.00,VWS V14.01,2013-12-20 01:31:00,
2013-12-19 20:36:00,19.0,12.4,29.53,SW,225,0.0,0.0,75,0.00,,---,0.00,VWS V14.01,2013-12-20 01:36:00,
2013-12-19 20:41:00,18.9,12.3,29.53,WSW,248,0.0,0.0,75,0.00,,---,0.00,VWS V14.01,2013-12-20 01:41:00,
2013-12-19 20:46:00,18.7,12.1,29.53,WSW,248,0.0,0.0,75,0.00,,---,0.00,VWS V14.01,2013-12-20 01:46:00,
2013-12-19 20:51:00,18.5,11.9,29.53,SSW,202,0.0,0.0,75,0.00,,---,0.00,VWS V14.01,2013-12-20 01:51:00,
2013-12-19 20:56:00,18.5,11.9,29.53,ENE,68,0.0,0.0,75,0.00,,---,0.00,VWS V14.01,2013-12-20 01:56:00,
2013-12-19 21:01:00,18.3,11.7,29.53,ENE,68,0.0,0.0,75,0.00,,---,0.00,VWS V14.01,2013-12-20 02:01:00,
2013-12-19 21:06:00,18.1,11.9,29.53,SW,225,0.0,0.0,76,0.00,,---,0.00,VWS V14.01,2013-12-20 02:06:00,
2013-12-19 21:11:00,17.8,11.2,29.53,SW,225,0.0,0.0,75,0.00,,---,0.00,VWS V14.01,2013-12-20 02:11:00,
2013-12-19 21:16:00,18.1,11.6,29.53,SW,225,0.0,0.0,75,0.00,,---,0.00,VWS V14.01,2013-12-20 02:16:00,
2013-12-19 21:21:00,18.0,11.7,29.53,NNE,22,0.0,0.0,76,0.00,,---,0.00,VWS V14.01,2013-12-20 02:21:00,
2013-12-19 21:27:00,18.7,12.7,29.56,SW,225,0.0,0.0,77,0.00,,---,0.00,VWS V14.01,2013-12-20 02:27:00,
2013-12-19 21:32:00,18.7,12.7,29.56,NE,45,0.0,0.0,77,0.00,,---,0.00,VWS V14.01,2013-12-20 02:32:00,
2013-12-19 21:37:00,18.7,13.0,29.56,WNW,292,0.0,0.0,78,0.00,,---,0.00,VWS V14.01,2013-12-20 02:37:00,
2013-12-19 21:42:00,19.2,14.1,29.56,SSW,202,0.0,0.0,80,0.00,,---,0.00,VWS V14.01,2013-12-20 02:42:00,
2013-12-19 21:47:00,18.5,12.8,29.56,SW,225,0.0,0.0,78,0.00,,---,0.00,VWS V14.01,2013-12-20 02:47:00,
2013-12-19 21:53:00,18.0,11.7,29.56,SW,225,0.0,0.0,76,0.00,,---,0.00,VWS V14.01,2013-12-20 02:53:00,
2013-12-19 21:58:00,17.4,10.9,29.56,SW,225,0.0,0.0,75,0.00,,---,0.00,VWS V14.01,2013-12-20 02:58:00,
2013-12-19 22:03:00,17.4,11.2,29.56,SSW,202,0.0,0.0,76,0.00,,---,0.00,VWS V14.01,2013-12-20 03:03:00,
2013-12-19 22:08:00,17.8,11.8,29.56,SSW,202,0.0,0.0,77,0.00,,---,0.00,VWS V14.01,2013-12-20 03:08:00,
2013-12-19 22:13:00,17.4,11.2,29.56,SSW,202,0.0,0.0,76,0.00,,---,0.00,VWS V14.01,2013-12-20 03:13:00,
2013-12-19 22:18:00,17.2,11.0,29.56,SSW,202,0.0,0.0,76,0.00,,---,0.00,VWS V14.01,2013-12-20 03:18:00,
2013-12-19 22:23:00,17.1,10.8,29.56,SSW,202,0.0,0.0,76,0.00,,---,0.00,VWS V14.01,2013-12-20 03:23:00,
2013-12-19 22:28:00,17.1,10.8,29.56,SSW,202,0.0,0.0,76,0.00,,---,0.00,VWS V14.01,2013-12-20 03:28:00,
2013-12-19 22:33:00,17.4,11.5,29.56,East,90,0.0,0.0,77,0.00,,---,0.00,VWS V14.01,2013-12-20 03:33:00,
2013-12-19 22:38:00,17.2,11.3,29.56,SW,225,0.0,0.0,77,0.00,,---,0.00,VWS V14.01,2013-12-20 03:38:00,
2013-12-19 22:43:00,16.9,10.9,29.56,SW,225,0.0,0.0,77,0.00,,---,0.00,VWS V14.01,2013-12-20 03:43:00,
2013-12-19 22:48:00,16.9,10.6,29.56,SW,225,0.0,0.0,76,0.00,,---,0.00,VWS V14.01,2013-12-20 03:48:00,
2013-12-19 22:53:00,16.7,10.5,29.56,SW,225,0.0,0.0,76,0.00,,---,0.00,VWS V14.01,2013-12-20 03:53:00,
2013-12-19 22:58:00,16.5,10.3,29.56,SW,225,0.0,0.0,76,0.00,,---,0.00,VWS V14.01,2013-12-20 03:58:00,
2013-12-19 23:03:00,16.2,9.9,29.56,SSW,202,0.0,0.0,76,0.00,,---,0.00,VWS V14.01,2013-12-20 04:03:00,
2013-12-19 23:08:00,16.2,9.9,29.56,SSW,202,0.0,0.0,76,0.00,,---,0.00,VWS V14.01,2013-12-20 04:08:00,
2013-12-19 23:13:00,16.0,9.8,29.56,SSW,202,0.0,0.0,76,0.00,,---,0.00,VWS V14.01,2013-12-20 04:13:00,
2013-12-19 23:19:00,16.2,9.9,29.56,SSW,202,0.0,0.0,76,0.00,,---,0.00,VWS V14.01,2013-12-20 04:19:00,
2013-12-19 23:24:00,16.2,9.9,29.59,SW,225,0.0,0.0,76,0.00,,---,0.00,VWS V14.01,2013-12-20 04:24:00,
2013-12-19 23:30:00,16.2,10.2,29.59,SSW,202,0.0,0.0,77,0.00,,---,0.00,VWS V14.01,2013-12-20 04:30:00,
2013-12-19 23:35:00,16.2,10.2,29.59,SSW,202,0.0,0.0,77,0.00,,---,0.00,VWS V14.01,2013-12-20 04:35:00,
2013-12-19 23:40:00,16.2,10.2,29.59,SSW,202,0.0,0.0,77,0.00,,---,0.00,VWS V14.01,2013-12-20 04:40:00,
2013-12-19 23:45:00,16.2,10.2,29.59,SSW,202,0.0,0.0,77,0.00,,---,0.00,VWS V14.01,2013-12-20 04:45:00,
2013-12-19 23:50:00,16.2,10.2,29.59,SSW,202,0.0,0.0,77,0.00,,---,0.00,VWS V14.01,2013-12-20 04:50:00,
2013-12-19 23:55:00,16.2,10.5,29.59,SSW,202,0.0,0.0,78,0.00,,---,0.00,VWS V14.01,2013-12-20 04:55:00,